Port Stanley — V7EE9 — position and weather

sailwx.info

Track history (hours):
 
Tides and Currents Weather Stations Pressure Air Temp Water Temp Dewpoint Dewpoint Depression Visibility Wind Speed Wind Dir Waves Ship Positions

Port Stanley

Last reported at 2014-Aug-12 08:29 UTC. Time now 2014-Aug-27 15:15 UTC.
Position N 22°08' E 114°13'.
Warning: this ship's position is 15 days out of date.

Length 182 m; draft 8.4 m.

Type: Tanker. MMSI: 538090299.

Date/timePositionNaut miles runAvg speedWind from/ knotsBaromVisibWave heightAir tempDewpointWater temp
2014-Aug-12 08:29N 22°08' E 114°13'161 8.9
2014-Aug-11 14:24N 22°53' E 117°00'1011.3
2014-Aug-11 13:32N 22°58' E 117°09'5911.8
2014-Aug-11 08:33N 23°37' E 117°58'1313.5
2014-Aug-11 07:33N 23°47' E 118°08'1413.8
2014-Aug-11 06:33N 23°57' E 118°18'1413.8
2014-Aug-11 05:33N 24°08' E 118°27'2013.7
2014-Aug-11 04:07N 24°19' E 118°45'813.6
2014-Aug-11 03:32N 24°24' E 118°52'1413.2
2014-Aug-11 02:28N 24°31' E 119°05'1212.6
2014-Aug-11 01:33N 24°37' E 119°16'  
Track history (hours):
 
Tides and Currents Weather Stations Pressure Air Temp Water Temp Dewpoint Dewpoint Depression Visibility Wind Speed Wind Dir Waves Ship Positions

Port Stanley

Last reported at 2014-Aug-12 08:29 UTC. Time now 2014-Aug-27 15:15 UTC.
Position N 22°08' E 114°13'.
Warning: this ship's position is 15 days out of date.

Length 182 m; draft 8.4 m.

Type: Tanker. MMSI: 538090299.

Date/timePositionNaut miles runAvg speedWind from/ knotsBaromVisibWave heightAir tempDewpointWater temp
2014-Aug-12 08:29N 22°08' E 114°13'161 8.9
2014-Aug-11 14:24N 22°53' E 117°00'1011.3
2014-Aug-11 13:32N 22°58' E 117°09'5911.8
2014-Aug-11 08:33N 23°37' E 117°58'1313.5
2014-Aug-11 07:33N 23°47' E 118°08'1413.8
2014-Aug-11 06:33N 23°57' E 118°18'1413.8
2014-Aug-11 05:33N 24°08' E 118°27'2013.7
2014-Aug-11 04:07N 24°19' E 118°45'813.6
2014-Aug-11 03:32N 24°24' E 118°52'1413.2
2014-Aug-11 02:28N 24°31' E 119°05'1212.6
2014-Aug-11 01:33N 24°37' E 119°16'  

Dump ship's entire track history